EGGW Airport Information

Runway Information
Runway 08 Length 7086 ft width 151 ft
Elevation 515 ft Threshold 0 ft Heading 74
Runway 26 Length 7086 ft Width 151 ft
Elevation 508 ft Threshold 279 ft Heading 254
Airport Frequencies
Type APP Name APP Frequency 129.55 MHZ
Type ATIS Name ATIS Frequency 120.575 MHZ
Type GND Name GND Frequency 121.75 MHZ
Type TWR Name TWR Frequency 132.55 MHZ
Airport Navaids
Airport Weather Information & NOTAM
ADDS - METARS form results

(2238 UTC 24 May 2022)
Data provider http://aviationweather.gov/metar/data/
 
METAR text: EGGW 242220Z AUTO 24007KT 9999 NCD 09/07 Q1011
Conditions at: EGGW (LUTON AIRPORT , GB) observed 2220 UTC 24 May 2022
Temperature: 9.0°C (48°F)
Dewpoint: 7.0°C (45°F) [RH = 87%]
Pressure (altimeter): 29.85 inches Hg (1011.0 mb)
Winds: from the WSW (240 degrees) at 8 MPH (7 knots; 3.6 m/s)
Visibility: 6 or more miles (10+ km)
Ceiling: at least 12,000 feet AGL
Clouds: sky clear below 12,000 feet AGL
Weather: no significant weather observed at this time

METAR text: EGGW 242150Z AUTO 24007KT 9999 NCD 10/07 Q1011
Conditions at: EGGW (LUTON AIRPORT , GB) observed 2150 UTC 24 May 2022
Temperature: 10.0°C (50°F)
Dewpoint: 7.0°C (45°F) [RH = 82%]
Pressure (altimeter): 29.85 inches Hg (1011.0 mb)
Winds: from the WSW (240 degrees) at 8 MPH (7 knots; 3.6 m/s)
Visibility: 6 or more miles (10+ km)
Ceiling: at least 12,000 feet AGL
Clouds: sky clear below 12,000 feet AGL
Weather: no significant weather observed at this time

Forecast for: EGGW (LUTON AIRPORT , GB)
Text: TAF EGGW 241659Z 2418/2518 23008KT 9999 SCT030
Forecast period: 1800 UTC 24 May 2022 to 1800 UTC 25 May 2022
Forecast type: FROM: standard forecast or significant change
Winds: from the SW (230 degrees) at 9 MPH (8 knots; 4.1 m/s)
Visibility: 6 or more miles (10+ km)
Ceiling: at least 12,000 feet AGL
Clouds: scattered clouds at 3000 feet AGL
Weather: no significant weather forecast for this period
Text: PROB40
Forecast period: 1000 to 1600 UTC 25 May 2022
Forecast type: TEMPORARY: The following changes expected for less than half the time period
Winds: from the SW (220 degrees) at 17 MPH (15 knots; 7.7 m/s)
gusting to 29 MPH (25 knots; 12.9 m/s)
Visibility: 5 miles (8 km)
Ceiling: 1200 feet AGL
Clouds: broken clouds at 1200 feet AGL
Weather: -RA  (light rain)